createdAt,value
2023-05-31T00:00:33.937Z,11.87
2023-05-31T00:03:17.447Z,11.89
2023-05-31T00:06:02.234Z,11.82
2023-05-31T00:08:28.921Z,11.76
2023-05-31T00:11:12.411Z,11.78
2023-05-31T00:13:42.045Z,11.82
2023-05-31T00:16:35.299Z,11.75
2023-05-31T00:19:01.801Z,11.85
2023-05-31T00:21:41.195Z,11.83
2023-05-31T00:24:08.169Z,11.73
2023-05-31T00:26:34.994Z,11.81
2023-05-31T00:29:27.180Z,11.78
2023-05-31T00:34:34.531Z,11.62
2023-05-31T00:37:23.501Z,11.52
2023-05-31T00:40:07.176Z,11.49
2023-05-31T00:42:34.401Z,11.49
2023-05-31T00:48:09.850Z,11.47
2023-05-31T00:50:42.964Z,11.55
2023-05-31T00:53:10.571Z,11.50
2023-05-31T00:55:55.201Z,11.37
2023-05-31T00:58:24.126Z,11.33
2023-05-31T01:01:08.808Z,11.41
2023-05-31T01:03:35.750Z,11.28
2023-05-31T01:06:03.174Z,11.29
2023-05-31T01:08:30.063Z,11.32
2023-05-31T01:11:24.952Z,11.28
2023-05-31T01:14:10.336Z,11.26
2023-05-31T01:17:02.148Z,11.29
2023-05-31T01:20:01.924Z,11.31
2023-05-31T01:22:29.022Z,11.28
2023-05-31T01:25:29.465Z,11.26
2023-05-31T01:28:12.659Z,11.12
2023-05-31T01:30:39.663Z,11.14
2023-05-31T01:33:11.715Z,11.05
2023-05-31T01:35:48.001Z,10.99
2023-05-31T01:40:58.820Z,10.98
2023-05-31T01:43:27.956Z,10.93
2023-05-31T01:46:11.811Z,10.93
2023-05-31T01:48:40.026Z,10.90
2023-05-31T01:51:29.969Z,10.94
2023-05-31T01:54:12.187Z,10.97
2023-05-31T01:56:41.394Z,10.98
2023-05-31T01:59:12.968Z,10.96
2023-05-31T02:09:11.844Z,10.82
2023-05-31T02:11:53.637Z,10.90
2023-05-31T02:14:20.541Z,10.73
2023-05-31T02:16:47.346Z,10.73
2023-05-31T02:19:15.206Z,10.79
2023-05-31T02:21:54.403Z,10.83
2023-05-31T02:27:02.051Z,10.73
2023-05-31T02:29:28.954Z,10.77
2023-05-31T02:32:33.892Z,10.83
2023-05-31T02:42:33.775Z,10.75
2023-05-31T02:45:00.497Z,10.65
2023-05-31T02:50:21.641Z,10.75
2023-05-31T02:52:50.610Z,10.77
2023-05-31T02:55:26.965Z,10.63
2023-05-31T02:57:53.729Z,10.54
2023-05-31T03:00:39.143Z,10.49
2023-05-31T03:06:03.770Z,10.39
2023-05-31T03:08:30.551Z,10.44
2023-05-31T03:10:57.994Z,10.39
2023-05-31T03:13:25.160Z,10.36
2023-05-31T03:16:07.044Z,10.38
2023-05-31T03:18:33.945Z,10.36
2023-05-31T03:21:02.204Z,10.28
2023-05-31T03:23:41.628Z,10.44
2023-05-31T03:28:47.094Z,10.45
2023-05-31T03:31:14.049Z,10.45
2023-05-31T03:33:41.267Z,10.43
2023-05-31T03:36:16.942Z,10.46
2023-05-31T03:38:44.164Z,10.41
2023-05-31T03:41:10.984Z,10.43
2023-05-31T03:43:53.203Z,10.41
2023-05-31T03:46:20.392Z,10.18
2023-05-31T03:48:55.937Z,10.16
2023-05-31T03:51:23.918Z,10.13
2023-05-31T03:53:51.172Z,10.10
2023-05-31T03:56:18.924Z,9.96
2023-05-31T03:59:12.368Z,9.97
2023-05-31T04:01:42.326Z,10.08
2023-05-31T04:04:09.543Z,10.07
2023-05-31T04:06:36.644Z,10.03
2023-05-31T04:09:05.394Z,9.93
2023-05-31T04:11:32.113Z,9.93
2023-05-31T04:16:50.936Z,10.01
2023-05-31T04:19:18.080Z,10.02
2023-05-31T04:21:57.806Z,10.10
2023-05-31T04:27:08.235Z,10.12
2023-05-31T04:29:47.359Z,10.22
2023-05-31T04:32:15.821Z,10.21
2023-05-31T04:34:59.086Z,10.35
2023-05-31T04:37:29.181Z,10.40
2023-05-31T04:40:17.086Z,10.37
2023-05-31T04:42:57.781Z,10.41
2023-05-31T04:45:25.751Z,10.40
2023-05-31T04:47:52.796Z,10.47
2023-05-31T04:50:26.626Z,10.42
2023-05-31T04:52:54.723Z,10.43
2023-05-31T04:56:07.962Z,10.39
2023-05-31T04:58:49.766Z,10.55
2023-05-31T05:01:32.593Z,10.62
2023-05-31T05:03:59.938Z,10.66
2023-05-31T05:06:27.708Z,10.73
2023-05-31T05:09:07.144Z,10.75
2023-05-31T05:11:33.827Z,10.81
2023-05-31T05:14:01.093Z,10.83
2023-05-31T05:19:13.075Z,11.04
2023-05-31T05:21:39.806Z,11.14
2023-05-31T05:24:06.892Z,11.10
2023-05-31T05:26:34.875Z,11.15
2023-05-31T05:31:42.113Z,11.27
2023-05-31T05:34:10.747Z,11.28
2023-05-31T05:36:58.429Z,11.38
2023-05-31T05:39:25.175Z,11.38
2023-05-31T05:42:10.492Z,11.49
2023-05-31T05:44:55.718Z,11.56
2023-05-31T05:47:36.199Z,11.76
2023-05-31T05:50:15.696Z,11.72
2023-05-31T05:52:45.921Z,11.79
2023-05-31T05:55:15.899Z,11.91
2023-05-31T05:57:52.847Z,11.92
2023-05-31T06:00:20.550Z,12.07
2023-05-31T06:02:47.182Z,12.19
2023-05-31T06:05:26.808Z,12.27
2023-05-31T06:07:55.218Z,12.28
2023-05-31T06:10:22.021Z,12.45
2023-05-31T06:12:48.708Z,12.49
2023-05-31T06:15:16.437Z,12.61
2023-05-31T06:17:44.069Z,12.66
2023-05-31T06:20:12.023Z,12.68
2023-05-31T06:22:38.923Z,12.77
2023-05-31T06:25:06.224Z,12.94
2023-05-31T06:27:32.848Z,13.07
2023-05-31T06:29:59.728Z,13.15
2023-05-31T06:32:26.989Z,13.19
2023-05-31T06:34:54.394Z,13.21
2023-05-31T06:37:22.910Z,13.27
2023-05-31T06:39:52.847Z,13.40
2023-05-31T06:42:28.504Z,13.44
2023-05-31T06:44:57.348Z,13.55
2023-05-31T06:47:38.693Z,13.64
2023-05-31T06:52:47.048Z,13.84
2023-05-31T06:55:13.692Z,13.93
2023-05-31T06:57:40.180Z,14.09
2023-05-31T07:00:08.490Z,14.17
2023-05-31T07:02:35.331Z,14.31
2023-05-31T07:05:02.079Z,14.42
2023-05-31T07:07:41.132Z,14.55
2023-05-31T07:10:08.399Z,14.56
2023-05-31T07:12:35.285Z,14.61
2023-05-31T07:15:02.052Z,14.57
2023-05-31T07:17:30.616Z,14.71
2023-05-31T07:19:57.705Z,14.80
2023-05-31T07:22:24.398Z,14.92
2023-05-31T07:24:51.109Z,15.11
2023-05-31T07:27:17.976Z,15.17
2023-05-31T07:29:44.504Z,15.20
2023-05-31T07:32:14.340Z,15.40
2023-05-31T07:35:02.884Z,15.52
2023-05-31T07:37:29.599Z,15.65
2023-05-31T07:39:56.244Z,15.84
2023-05-31T07:42:22.981Z,15.96
2023-05-31T07:45:07.664Z,15.97
2023-05-31T07:47:36.143Z,16.14
2023-05-31T07:50:02.848Z,16.27
2023-05-31T07:52:29.478Z,16.35
2023-05-31T07:55:01.604Z,16.51
2023-05-31T07:57:29.651Z,16.64
2023-05-31T07:59:56.435Z,16.62
2023-05-31T08:02:23.032Z,16.70
2023-05-31T08:04:52.324Z,16.81
2023-05-31T08:07:28.604Z,16.91
2023-05-31T08:09:55.662Z,17.11
2023-05-31T08:12:38.297Z,17.22
2023-05-31T08:15:07.048Z,17.11
2023-05-31T08:24:41.060Z,17.75
2023-05-31T08:35:16.995Z,17.80
2023-05-31T08:37:56.248Z,17.92
2023-05-31T08:40:43.077Z,18.05
2023-05-31T08:49:58.982Z,18.29
2023-05-31T08:57:31.506Z,18.43
2023-05-31T09:21:49.107Z,19.23
2023-05-31T09:25:06.128Z,19.42
2023-05-31T09:28:23.463Z,19.69
2023-05-31T09:35:01.542Z,19.98
2023-05-31T09:40:35.798Z,19.99
2023-05-31T09:46:11.809Z,20.15
2023-05-31T09:57:41.463Z,20.25
2023-05-31T10:04:26.744Z,20.61
2023-05-31T10:07:24.812Z,20.73
2023-05-31T10:10:59.683Z,20.98
2023-05-31T10:27:52.318Z,21.45
2023-05-31T10:34:14.140Z,21.37
2023-05-31T10:36:58.867Z,21.63
2023-05-31T10:40:06.372Z,21.47
2023-05-31T10:43:26.322Z,21.60
2023-05-31T10:46:21.907Z,21.44
2023-05-31T10:49:06.633Z,21.63
2023-05-31T10:54:52.265Z,21.69
2023-05-31T10:57:31.890Z,21.55
2023-05-31T11:00:05.662Z,21.78
2023-05-31T11:02:35.813Z,21.92
2023-05-31T11:06:31.510Z,21.94
2023-05-31T11:12:26.700Z,22.08
2023-05-31T11:26:52.873Z,22.11
2023-05-31T11:30:12.718Z,22.34
2023-05-31T11:36:02.934Z,22.47
2023-05-31T11:38:33.892Z,22.60
2023-05-31T11:41:46.593Z,22.72
2023-05-31T11:44:21.428Z,22.78
2023-05-31T11:47:01.899Z,22.76
2023-05-31T11:49:40.382Z,22.60
2023-05-31T11:52:21.989Z,22.67
2023-05-31T11:54:58.131Z,22.75
2023-05-31T11:57:25.084Z,22.97
2023-05-31T12:03:25.931Z,23.03
2023-05-31T12:06:06.130Z,22.90
2023-05-31T12:08:54.328Z,23.15
2023-05-31T12:12:09.358Z,23.32
2023-05-31T12:14:36.679Z,23.19
2023-05-31T12:17:11.507Z,23.24
2023-05-31T12:20:02.189Z,23.25
2023-05-31T12:22:49.929Z,23.17
2023-05-31T12:25:28.343Z,23.27
2023-05-31T12:27:55.645Z,23.28
2023-05-31T12:30:47.936Z,23.29
2023-05-31T12:33:21.417Z,23.35
2023-05-31T12:36:00.570Z,23.30
2023-05-31T12:38:30.796Z,23.13
2023-05-31T12:41:18.019Z,23.20
2023-05-31T12:43:51.058Z,23.14
2023-05-31T12:46:21.531Z,23.17
2023-05-31T12:49:16.263Z,23.54
2023-05-31T12:52:09.549Z,23.67
2023-05-31T12:54:46.557Z,23.57
2023-05-31T12:57:13.284Z,23.60
2023-05-31T12:59:41.196Z,23.48
2023-05-31T13:02:31.804Z,23.57
2023-05-31T13:04:59.172Z,23.53
2023-05-31T13:07:43.521Z,23.55
2023-05-31T13:10:25.622Z,23.34
2023-05-31T13:12:52.374Z,23.43
2023-05-31T13:15:19.634Z,23.60
2023-05-31T13:17:46.304Z,23.60
2023-05-31T13:20:25.164Z,23.69
2023-05-31T13:22:51.732Z,23.81
2023-05-31T13:28:12.165Z,23.94
2023-05-31T13:30:39.079Z,23.95
2023-05-31T13:33:23.818Z,24.11
2023-05-31T13:35:57.034Z,23.82
2023-05-31T13:38:27.109Z,23.99
2023-05-31T13:40:53.753Z,24.05
2023-05-31T13:43:38.241Z,24.23
2023-05-31T13:46:06.245Z,24.38
2023-05-31T13:48:33.452Z,24.47
2023-05-31T13:51:00.437Z,24.46
2023-05-31T13:53:27.504Z,24.46
2023-05-31T13:56:03.105Z,24.59
2023-05-31T13:58:34.569Z,24.42
2023-05-31T14:01:03.161Z,24.35
2023-05-31T14:03:30.095Z,24.15
2023-05-31T14:05:57.234Z,24.25
2023-05-31T14:08:23.875Z,24.35
2023-05-31T14:14:40.902Z,24.37
2023-05-31T14:17:10.748Z,24.16
2023-05-31T14:19:59.307Z,24.32
2023-05-31T14:22:26.008Z,24.36
2023-05-31T14:24:52.536Z,24.58
2023-05-31T14:27:19.893Z,24.12
2023-05-31T14:29:46.318Z,23.99
2023-05-31T14:32:15.975Z,23.97
2023-05-31T14:34:44.808Z,24.17
2023-05-31T14:37:15.402Z,24.34
2023-05-31T14:39:44.640Z,24.36
2023-05-31T14:45:44.532Z,24.07
2023-05-31T14:48:22.704Z,23.74
2023-05-31T14:57:42.931Z,23.72
2023-05-31T15:00:13.461Z,23.65
2023-05-31T15:02:39.930Z,23.58
2023-05-31T15:05:07.141Z,23.65
2023-05-31T15:07:33.555Z,23.46
2023-05-31T15:10:04.359Z,23.57
2023-05-31T15:12:30.926Z,23.67
2023-05-31T15:14:57.384Z,23.92
2023-05-31T15:31:36.787Z,23.58
2023-05-31T15:37:52.458Z,23.91
2023-05-31T15:40:22.190Z,23.90
2023-05-31T15:42:54.736Z,23.78
2023-05-31T15:45:27.434Z,23.84
2023-05-31T15:47:54.148Z,23.68
2023-05-31T15:50:20.903Z,23.61
2023-05-31T15:52:47.413Z,23.61
2023-05-31T15:55:13.969Z,23.81
2023-05-31T15:57:44.085Z,23.78
2023-05-31T16:00:11.115Z,23.59
2023-05-31T16:02:41.362Z,23.57
2023-05-31T16:05:28.638Z,23.64
2023-05-31T16:10:36.607Z,23.86
2023-05-31T16:13:08.019Z,23.91
2023-05-31T16:15:35.808Z,23.87
2023-05-31T17:33:06.291Z,21.51
2023-05-31T17:47:36.785Z,20.98
2023-05-31T17:50:06.888Z,20.85
2023-05-31T17:53:07.905Z,20.84
2023-05-31T17:58:28.521Z,20.53
